T7ZEM SCCI-SAWH
Flight info
| Callsign | T7ZEM |
|---|---|
| Flight time | 0h 47m |
| Altitude | 29000 |
| Route | UROXA DCT D141J DCT ALMIR DCT ROMIV DCT USU DCT RENEN DCT WH092 DCT WH192 DCT MA25 DCT DER07 |
| Aircraft | TBM8/L-SDFGRWY/S |
Departure
| Time | 2026-04-27 18:25 |
|---|---|
| Airport | President Carlos Ibáñez International Airport (SCCI) |
Arrival
| Time | 2026-04-27 19:12 |
|---|---|
| Airport | Ushuaia - Malvinas Argentinas International Airport (SAWH) |
| Time | Latitude | Longitude | Altitude | Speed | Heading |
|---|---|---|---|---|---|
| 2026-04-27 18:16 | -53.00476 | -70.84734 | 110 ft | 0 kts | 224° |
| 2026-04-27 18:21 | -53.00476 | -70.84733 | 110 ft | 0 kts | 224° |
| 2026-04-27 18:21 | -53.00475 | -70.84733 | 110 ft | 0 kts | 224° |
| 2026-04-27 18:21 | -53.00483 | -70.84736 | 110 ft | 5 kts | 162° |
| 2026-04-27 18:21 | -53.00439 | -70.84722 | 110 ft | 13 kts | 12° |
| 2026-04-27 18:22 | -53.00385 | -70.84587 | 110 ft | 18 kts | 81° |
| 2026-04-27 18:22 | -53.00372 | -70.84397 | 110 ft | 13 kts | 47° |
| 2026-04-27 18:22 | -53.00275 | -70.84372 | 110 ft | 17 kts | 16° |
| 2026-04-27 18:22 | -53.00244 | -70.84149 | 109 ft | 25 kts | 88° |
| 2026-04-27 18:23 | -53.00240 | -70.83808 | 106 ft | 32 kts | 87° |
| 2026-04-27 18:23 | -53.00236 | -70.83491 | 104 ft | 19 kts | 90° |
| 2026-04-27 18:23 | -53.00154 | -70.83418 | 103 ft | 14 kts | 359° |
| 2026-04-27 18:23 | -53.00063 | -70.83503 | 101 ft | 19 kts | 275° |
| 2026-04-27 18:24 | -53.00068 | -70.83933 | 106 ft | 63 kts | 269° |
| 2026-04-27 18:24 | -53.00086 | -70.84887 | 195 ft | 96 kts | 268° |
| 2026-04-27 18:24 | -53.00120 | -70.86130 | 396 ft | 120 kts | 264° |
| 2026-04-27 18:24 | -53.00267 | -70.87582 | 641 ft | 138 kts | 265° |
| 2026-04-27 18:25 | -53.00314 | -70.89247 | 892 ft | 149 kts | 265° |
| 2026-04-27 18:25 | -53.00339 | -70.90990 | 1228 ft | 154 kts | 269° |
| 2026-04-27 18:25 | -53.00314 | -70.92745 | 1758 ft | 147 kts | 271° |
| 2026-04-27 18:25 | -53.00315 | -70.94427 | 2286 ft | 146 kts | 264° |
| 2026-04-27 18:26 | -53.00817 | -70.95862 | 2844 ft | 151 kts | 225° |
| 2026-04-27 18:26 | -53.01862 | -70.96400 | 3354 ft | 176 kts | 187° |
| 2026-04-27 18:26 | -53.03043 | -70.95471 | 3831 ft | 199 kts | 155° |
| 2026-04-27 18:26 | -53.04158 | -70.94091 | 4258 ft | 200 kts | 156° |
| 2026-04-27 18:27 | -53.05296 | -70.92752 | 4719 ft | 200 kts | 158° |
| 2026-04-27 18:27 | -53.06427 | -70.91447 | 5219 ft | 201 kts | 158° |
| 2026-04-27 18:27 | -53.07582 | -70.90121 | 5686 ft | 203 kts | 158° |
| 2026-04-27 18:27 | -53.08744 | -70.88778 | 6142 ft | 203 kts | 158° |
| 2026-04-27 18:28 | -53.09910 | -70.87449 | 6560 ft | 203 kts | 158° |
| 2026-04-27 18:28 | -53.11070 | -70.86112 | 6971 ft | 203 kts | 158° |
| 2026-04-27 18:28 | -53.12229 | -70.84772 | 7381 ft | 202 kts | 158° |
| 2026-04-27 18:28 | -53.13384 | -70.83435 | 7810 ft | 202 kts | 158° |
| 2026-04-27 18:29 | -53.14535 | -70.82106 | 8253 ft | 201 kts | 158° |
| 2026-04-27 18:29 | -53.15686 | -70.80773 | 8710 ft | 201 kts | 158° |
| 2026-04-27 18:29 | -53.16831 | -70.79447 | 9170 ft | 200 kts | 157° |
| 2026-04-27 18:29 | -53.17955 | -70.78148 | 9591 ft | 199 kts | 157° |
| 2026-04-27 18:30 | -53.19097 | -70.76830 | 9956 ft | 200 kts | 157° |
| 2026-04-27 18:30 | -53.20246 | -70.75498 | 10316 ft | 202 kts | 157° |
| 2026-04-27 18:30 | -53.21404 | -70.74155 | 10671 ft | 204 kts | 157° |
| 2026-04-27 18:30 | -53.22569 | -70.72805 | 11040 ft | 205 kts | 158° |
| 2026-04-27 18:31 | -53.23746 | -70.71452 | 11421 ft | 207 kts | 157° |
| 2026-04-27 18:31 | -53.24926 | -70.70063 | 11793 ft | 208 kts | 157° |
| 2026-04-27 18:31 | -53.26117 | -70.68674 | 12174 ft | 209 kts | 157° |
| 2026-04-27 18:31 | -53.27313 | -70.67287 | 12552 ft | 210 kts | 158° |
| 2026-04-27 18:32 | -53.28502 | -70.65908 | 12926 ft | 212 kts | 157° |
| 2026-04-27 18:32 | -53.29706 | -70.64501 | 13293 ft | 213 kts | 158° |
| 2026-04-27 18:32 | -53.30924 | -70.63080 | 13637 ft | 214 kts | 158° |
| 2026-04-27 18:32 | -53.32149 | -70.61651 | 13963 ft | 216 kts | 157° |
| 2026-04-27 18:33 | -53.33382 | -70.60208 | 14279 ft | 217 kts | 157° |
| 2026-04-27 18:33 | -53.34623 | -70.58759 | 14618 ft | 218 kts | 157° |
| 2026-04-27 18:33 | -53.35873 | -70.57302 | 14941 ft | 220 kts | 157° |
| 2026-04-27 18:33 | -53.37129 | -70.55825 | 15264 ft | 221 kts | 157° |
| 2026-04-27 18:34 | -53.38377 | -70.54360 | 15578 ft | 223 kts | 157° |
| 2026-04-27 18:34 | -53.39651 | -70.52870 | 15895 ft | 224 kts | 157° |
| 2026-04-27 18:34 | -53.40932 | -70.51370 | 16259 ft | 225 kts | 158° |
| 2026-04-27 18:34 | -53.42218 | -70.49859 | 16590 ft | 226 kts | 158° |
| 2026-04-27 18:35 | -53.43508 | -70.48349 | 16909 ft | 227 kts | 158° |
| 2026-04-27 18:35 | -53.44809 | -70.46812 | 17222 ft | 229 kts | 157° |
| 2026-04-27 18:35 | -53.46112 | -70.45276 | 17536 ft | 230 kts | 157° |
| 2026-04-27 18:35 | -53.47427 | -70.43730 | 17845 ft | 231 kts | 157° |
| 2026-04-27 18:36 | -53.48732 | -70.42195 | 18114 ft | 233 kts | 157° |
| 2026-04-27 18:36 | -53.50060 | -70.40630 | 18385 ft | 234 kts | 157° |
| 2026-04-27 18:36 | -53.51394 | -70.39055 | 18650 ft | 235 kts | 156° |
| 2026-04-27 18:36 | -53.52734 | -70.37466 | 18939 ft | 236 kts | 156° |
| 2026-04-27 18:37 | -53.54081 | -70.35873 | 19240 ft | 237 kts | 156° |
| 2026-04-27 18:37 | -53.55435 | -70.34274 | 19540 ft | 239 kts | 156° |
| 2026-04-27 18:37 | -53.56795 | -70.32662 | 19845 ft | 240 kts | 156° |
| 2026-04-27 18:37 | -53.58160 | -70.31046 | 20135 ft | 241 kts | 156° |
| 2026-04-27 18:38 | -53.59536 | -70.29408 | 20435 ft | 242 kts | 156° |
| 2026-04-27 18:38 | -53.60896 | -70.27795 | 20728 ft | 243 kts | 156° |
| 2026-04-27 18:38 | -53.62284 | -70.26149 | 21018 ft | 245 kts | 155° |
| 2026-04-27 18:38 | -53.63682 | -70.24491 | 21320 ft | 247 kts | 155° |
| 2026-04-27 18:39 | -53.65088 | -70.22816 | 21603 ft | 248 kts | 155° |
| 2026-04-27 18:39 | -53.66502 | -70.21132 | 21884 ft | 249 kts | 155° |
| 2026-04-27 18:39 | -53.67922 | -70.19438 | 22160 ft | 251 kts | 155° |
| 2026-04-27 18:39 | -53.69350 | -70.17737 | 22436 ft | 252 kts | 155° |
| 2026-04-27 18:40 | -53.70784 | -70.16024 | 22707 ft | 253 kts | 155° |
| 2026-04-27 18:40 | -53.72225 | -70.14303 | 22968 ft | 254 kts | 154° |
| 2026-04-27 18:40 | -53.73652 | -70.12595 | 23220 ft | 255 kts | 154° |
| 2026-04-27 18:40 | -53.75105 | -70.10857 | 23442 ft | 256 kts | 154° |
| 2026-04-27 18:41 | -53.76562 | -70.09110 | 23673 ft | 257 kts | 154° |
| 2026-04-27 18:41 | -53.78022 | -70.07359 | 23893 ft | 258 kts | 154° |
| 2026-04-27 18:41 | -53.79486 | -70.05602 | 24108 ft | 258 kts | 154° |
| 2026-04-27 18:41 | -53.80954 | -70.03840 | 24320 ft | 259 kts | 154° |
| 2026-04-27 18:42 | -53.82422 | -70.02073 | 24545 ft | 260 kts | 154° |
| 2026-04-27 18:42 | -53.83399 | -70.00897 | 24700 ft | 260 kts | 154° |
| 2026-04-27 18:42 | -53.85376 | -69.98520 | 25022 ft | 260 kts | 154° |
| 2026-04-27 18:42 | -53.86833 | -69.96762 | 25254 ft | 261 kts | 154° |
| 2026-04-27 18:43 | -53.88315 | -69.94975 | 25462 ft | 262 kts | 154° |
| 2026-04-27 18:43 | -53.89802 | -69.93184 | 25661 ft | 263 kts | 154° |
| 2026-04-27 18:43 | -53.91290 | -69.91377 | 25884 ft | 264 kts | 154° |
| 2026-04-27 18:43 | -53.92782 | -69.89566 | 26107 ft | 263 kts | 154° |
| 2026-04-27 18:44 | -53.94274 | -69.87766 | 26335 ft | 263 kts | 154° |
| 2026-04-27 18:44 | -53.95764 | -69.85966 | 26554 ft | 263 kts | 154° |
| 2026-04-27 18:44 | -53.97236 | -69.84179 | 26744 ft | 264 kts | 154° |
| 2026-04-27 18:44 | -53.98732 | -69.82362 | 26941 ft | 265 kts | 154° |
| 2026-04-27 18:45 | -54.00208 | -69.80481 | 27149 ft | 271 kts | 146° |
| 2026-04-27 18:45 | -54.01536 | -69.78169 | 27327 ft | 275 kts | 142° |
| 2026-04-27 18:45 | -54.02853 | -69.75810 | 27505 ft | 275 kts | 143° |
| 2026-04-27 18:45 | -54.04186 | -69.73475 | 27698 ft | 275 kts | 143° |
| 2026-04-27 18:46 | -54.05525 | -69.71141 | 27903 ft | 276 kts | 143° |
| 2026-04-27 18:46 | -54.06861 | -69.68781 | 28060 ft | 277 kts | 143° |
| 2026-04-27 18:46 | -54.08206 | -69.66430 | 28246 ft | 277 kts | 143° |
| 2026-04-27 18:46 | -54.09550 | -69.64071 | 28419 ft | 278 kts | 143° |
| 2026-04-27 18:47 | -54.10878 | -69.61728 | 28562 ft | 280 kts | 142° |
| 2026-04-27 18:47 | -54.12244 | -69.59317 | 28561 ft | 286 kts | 142° |
| 2026-04-27 18:47 | -54.13641 | -69.56858 | 28566 ft | 291 kts | 142° |
| 2026-04-27 18:47 | -54.15058 | -69.54354 | 28563 ft | 295 kts | 142° |
| 2026-04-27 18:48 | -54.16492 | -69.51811 | 28563 ft | 299 kts | 142° |
| 2026-04-27 18:48 | -54.17941 | -69.49244 | 28560 ft | 302 kts | 142° |
| 2026-04-27 18:48 | -54.20871 | -69.44049 | 28563 ft | 306 kts | 142° |
| 2026-04-27 18:49 | -54.23822 | -69.38801 | 28552 ft | 309 kts | 141° |
| 2026-04-27 18:49 | -54.26819 | -69.33465 | 28541 ft | 312 kts | 141° |
| 2026-04-27 18:50 | -54.29832 | -69.28081 | 28543 ft | 314 kts | 141° |
| 2026-04-27 18:50 | -54.32860 | -69.22661 | 28547 ft | 316 kts | 141° |
| 2026-04-27 18:51 | -54.35880 | -69.17248 | 28539 ft | 317 kts | 141° |
| 2026-04-27 18:51 | -54.38947 | -69.11758 | 27908 ft | 327 kts | 141° |
| 2026-04-27 18:52 | -54.40542 | -69.08895 | 27227 ft | 334 kts | 140° |
| 2026-04-27 18:52 | -54.42143 | -69.05985 | 26559 ft | 335 kts | 140° |
| 2026-04-27 18:52 | -54.43742 | -69.03083 | 25910 ft | 336 kts | 140° |
| 2026-04-27 18:53 | -54.46972 | -68.97256 | 24677 ft | 337 kts | 141° |
| 2026-04-27 18:53 | -54.48582 | -68.94345 | 24061 ft | 334 kts | 141° |
| 2026-04-27 18:53 | -54.50149 | -68.91511 | 23475 ft | 329 kts | 141° |
| 2026-04-27 18:53 | -54.51709 | -68.88663 | 22835 ft | 325 kts | 141° |
| 2026-04-27 18:54 | -54.53249 | -68.85848 | 22140 ft | 321 kts | 141° |
| 2026-04-27 18:54 | -54.54773 | -68.83068 | 21451 ft | 317 kts | 142° |
| 2026-04-27 18:54 | -54.56277 | -68.80332 | 20789 ft | 313 kts | 142° |
| 2026-04-27 18:54 | -54.57767 | -68.77621 | 20140 ft | 310 kts | 142° |
| 2026-04-27 18:55 | -54.59243 | -68.74925 | 19504 ft | 308 kts | 142° |
| 2026-04-27 18:55 | -54.60707 | -68.72249 | 18880 ft | 305 kts | 143° |
| 2026-04-27 18:55 | -54.62153 | -68.69602 | 18267 ft | 302 kts | 143° |
| 2026-04-27 18:55 | -54.63578 | -68.66972 | 17651 ft | 297 kts | 143° |
| 2026-04-27 18:56 | -54.64978 | -68.64402 | 17026 ft | 293 kts | 144° |
| 2026-04-27 18:56 | -54.66353 | -68.61899 | 16406 ft | 290 kts | 144° |
| 2026-04-27 18:56 | -54.67686 | -68.59300 | 15849 ft | 288 kts | 141° |
| 2026-04-27 18:56 | -54.69013 | -68.56760 | 15250 ft | 282 kts | 144° |
| 2026-04-27 18:57 | -54.70348 | -68.54305 | 14690 ft | 278 kts | 144° |
| 2026-04-27 18:57 | -54.71655 | -68.51877 | 14190 ft | 275 kts | 143° |
| 2026-04-27 18:57 | -54.72906 | -68.49389 | 13691 ft | 273 kts | 142° |
| 2026-04-27 18:57 | -54.74148 | -68.46938 | 13185 ft | 268 kts | 144° |
| 2026-04-27 18:58 | -54.75395 | -68.44578 | 12620 ft | 262 kts | 143° |
| 2026-04-27 18:58 | -54.76192 | -68.43031 | 12244 ft | 259 kts | 143° |
| 2026-04-27 18:58 | -54.77808 | -68.40015 | 11571 ft | 256 kts | 143° |
| 2026-04-27 18:58 | -54.78991 | -68.37736 | 11190 ft | 254 kts | 143° |
| 2026-04-27 18:59 | -54.80144 | -68.35436 | 10800 ft | 251 kts | 142° |
| 2026-04-27 18:59 | -54.81302 | -68.33207 | 10416 ft | 248 kts | 144° |
| 2026-04-27 18:59 | -54.82458 | -68.31010 | 10039 ft | 246 kts | 143° |
| 2026-04-27 18:59 | -54.83560 | -68.28732 | 9658 ft | 252 kts | 133° |
| 2026-04-27 19:00 | -54.84143 | -68.25768 | 9272 ft | 266 kts | 108° |
| 2026-04-27 19:00 | -54.84491 | -68.22631 | 8912 ft | 262 kts | 108° |
| 2026-04-27 19:00 | -54.84865 | -68.19607 | 8590 ft | 257 kts | 109° |
| 2026-04-27 19:00 | -54.85240 | -68.16592 | 8267 ft | 254 kts | 108° |
| 2026-04-27 19:01 | -54.85601 | -68.13611 | 7957 ft | 251 kts | 107° |
| 2026-04-27 19:01 | -54.85958 | -68.10643 | 7638 ft | 252 kts | 107° |
| 2026-04-27 19:01 | -54.86317 | -68.07637 | 7325 ft | 259 kts | 106° |
| 2026-04-27 19:01 | -54.86691 | -68.04548 | 7012 ft | 264 kts | 106° |
| 2026-04-27 19:02 | -54.87072 | -68.01420 | 6713 ft | 266 kts | 105° |
| 2026-04-27 19:02 | -54.87449 | -67.98283 | 6411 ft | 266 kts | 105° |
| 2026-04-27 19:02 | -54.87825 | -67.95135 | 6113 ft | 266 kts | 105° |
| 2026-04-27 19:02 | -54.88200 | -67.91996 | 5833 ft | 265 kts | 105° |
| 2026-04-27 19:03 | -54.88568 | -67.88914 | 5544 ft | 263 kts | 105° |
| 2026-04-27 19:03 | -54.88936 | -67.85817 | 5252 ft | 260 kts | 105° |
| 2026-04-27 19:03 | -54.89157 | -67.82715 | 4953 ft | 261 kts | 85° |
| 2026-04-27 19:03 | -54.88838 | -67.80730 | 4755 ft | 255 kts | 61° |
| 2026-04-27 19:04 | -54.87297 | -67.78288 | 4611 ft | 208 kts | 14° |
| 2026-04-27 19:04 | -54.85964 | -67.77730 | 4612 ft | 188 kts | 352° |
| 2026-04-27 19:04 | -54.84727 | -67.78002 | 4611 ft | 171 kts | 333° |
| 2026-04-27 19:04 | -54.83687 | -67.78920 | 4623 ft | 168 kts | 315° |
| 2026-04-27 19:05 | -54.82864 | -67.80343 | 4625 ft | 171 kts | 298° |
| 2026-04-27 19:05 | -54.82419 | -67.82197 | 4588 ft | 165 kts | 276° |
| 2026-04-27 19:05 | -54.82256 | -67.84096 | 4632 ft | 162 kts | 278° |
| 2026-04-27 19:05 | -54.82042 | -67.86019 | 4602 ft | 163 kts | 280° |
| 2026-04-27 19:06 | -54.81852 | -67.87951 | 4607 ft | 165 kts | 270° |
| 2026-04-27 19:06 | -54.82215 | -67.89784 | 4611 ft | 156 kts | 252° |
| 2026-04-27 19:06 | -54.82581 | -67.91483 | 4610 ft | 151 kts | 248° |
| 2026-04-27 19:06 | -54.82899 | -67.93257 | 4603 ft | 163 kts | 263° |
| 2026-04-27 19:07 | -54.83012 | -67.95191 | 4488 ft | 162 kts | 265° |
| 2026-04-27 19:07 | -54.83085 | -67.97193 | 4225 ft | 169 kts | 266° |
| 2026-04-27 19:07 | -54.83164 | -67.99179 | 3951 ft | 159 kts | 266° |
| 2026-04-27 19:07 | -54.83236 | -68.00992 | 3725 ft | 143 kts | 264° |
| 2026-04-27 19:08 | -54.83305 | -68.02727 | 3460 ft | 148 kts | 267° |
| 2026-04-27 19:08 | -54.83371 | -68.04515 | 3220 ft | 150 kts | 266° |
| 2026-04-27 19:08 | -54.83446 | -68.06353 | 2975 ft | 158 kts | 267° |
| 2026-04-27 19:08 | -54.83517 | -68.08318 | 2709 ft | 167 kts | 267° |
| 2026-04-27 19:09 | -54.83598 | -68.10353 | 2402 ft | 171 kts | 266° |
| 2026-04-27 19:09 | -54.83673 | -68.12418 | 2096 ft | 172 kts | 266° |
| 2026-04-27 19:09 | -54.83753 | -68.14413 | 1808 ft | 160 kts | 265° |
| 2026-04-27 19:09 | -54.83830 | -68.16289 | 1562 ft | 157 kts | 265° |
| 2026-04-27 19:10 | -54.83896 | -68.18188 | 1331 ft | 159 kts | 265° |
| 2026-04-27 19:10 | -54.83975 | -68.20105 | 1093 ft | 161 kts | 265° |
| 2026-04-27 19:10 | -54.84044 | -68.22064 | 841 ft | 164 kts | 266° |
| 2026-04-27 19:10 | -54.84095 | -68.23371 | 670 ft | 163 kts | 265° |
| 2026-04-27 19:11 | -54.84199 | -68.25985 | 335 ft | 161 kts | 265° |
| 2026-04-27 19:11 | -54.84259 | -68.27723 | 135 ft | 120 kts | 265° |
| 2026-04-27 19:11 | -54.84310 | -68.28913 | 101 ft | 77 kts | 265° |
| 2026-04-27 19:11 | -54.84341 | -68.29715 | 101 ft | 55 kts | 265° |
| 2026-04-27 19:12 | -54.84357 | -68.30248 | 100 ft | 38 kts | 265° |
| 2026-04-27 19:12 | -54.84364 | -68.30678 | 102 ft | 38 kts | 272° |
| 2026-04-27 19:12 | -54.84363 | -68.30963 | 106 ft | 2 kts | 332° |
| 2026-04-27 19:12 | -54.84331 | -68.30962 | 106 ft | 11 kts | 3° |
| 2026-04-27 19:13 | -54.84223 | -68.30927 | 104 ft | 12 kts | 68° |
| 2026-04-27 19:13 | -54.84210 | -68.30707 | 103 ft | 24 kts | 86° |
| 2026-04-27 19:13 | -54.84128 | -68.30606 | 103 ft | 10 kts | 132° |
| 2026-04-27 19:13 | -54.84139 | -68.30596 | 103 ft | 0 kts | 176° |